Belvedere, United Kingdom
Current Conditions -  °F | °C
As of 9:50 PM on Monday 22 Dec 2014 (Local Time) from EGLC Reporting Station
Overcast Overcast  
Wind Chill: 54°   Ceiling: 2400
Heat Index: 54°   Visibility: 6mi
Dew Point: 43°   Wind: 18mph
Humidity: 67%   Direction: 250°WSW
Pressure: 30.06"   Gusts: NA
Location:  51.49°N, 0.15°E
Report Text: EGLC 222150Z AUTO 25016KT 9999 OVC024/// 12/06 Q1018
Loading
Personal Weather Stations






























Interactive Weather Map New forecast layout! Learn more

10-Day Weather Forecast

Advertisements
Track Severe Weather on mobile